createdAt,value
2017-10-14T00:00:05.223Z,72.00
2017-10-14T00:02:32.826Z,71.90
2017-10-14T00:05:01.234Z,72.30
2017-10-14T00:07:28.855Z,72.20
2017-10-14T00:09:56.488Z,72.40
2017-10-14T00:12:24.096Z,72.40
2017-10-14T00:14:52.564Z,72.50
2017-10-14T00:17:20.169Z,72.40
2017-10-14T00:19:47.776Z,72.80
2017-10-14T00:22:15.401Z,73.60
2017-10-14T00:24:43.027Z,72.60
2017-10-14T00:27:11.412Z,72.70
2017-10-14T00:29:39.806Z,72.70
2017-10-14T00:32:07.417Z,72.70
2017-10-14T00:34:35.013Z,72.80
2017-10-14T00:37:02.655Z,72.80
2017-10-14T00:39:31.040Z,72.70
2017-10-14T00:41:59.446Z,73.00
2017-10-14T00:44:27.045Z,72.90
2017-10-14T00:46:54.681Z,72.90
2017-10-14T00:49:22.285Z,72.70
2017-10-14T00:51:49.880Z,72.80
2017-10-14T00:54:17.539Z,73.00
2017-10-14T00:56:45.141Z,72.90
2017-10-14T00:59:12.777Z,72.90
2017-10-14T01:01:40.382Z,73.10
2017-10-14T01:04:08.015Z,73.10
2017-10-14T01:06:35.631Z,73.20
2017-10-14T01:09:04.008Z,73.10
2017-10-14T01:11:32.404Z,73.10
2017-10-14T01:14:00.004Z,73.80
2017-10-14T01:16:27.637Z,73.20
2017-10-14T01:18:55.246Z,73.10
2017-10-14T01:21:22.880Z,73.20
2017-10-14T01:23:50.502Z,73.20
2017-10-14T01:26:18.899Z,73.40
2017-10-14T01:28:46.499Z,73.30
2017-10-14T01:31:14.130Z,73.30
2017-10-14T01:33:41.757Z,74.30
2017-10-14T01:36:10.144Z,73.40
2017-10-14T01:38:37.843Z,73.30
2017-10-14T01:41:05.440Z,73.50
2017-10-14T01:43:33.061Z,73.50
2017-10-14T01:46:00.658Z,73.50
2017-10-14T01:48:28.277Z,73.70
2017-10-14T01:50:55.886Z,73.70
2017-10-14T01:53:24.309Z,73.80
2017-10-14T01:55:51.925Z,73.80
2017-10-14T01:58:20.306Z,73.70
2017-10-14T02:00:47.933Z,73.70
2017-10-14T02:03:15.541Z,73.70
2017-10-14T02:05:43.934Z,73.60
2017-10-14T02:08:11.543Z,73.60
2017-10-14T02:10:39.207Z,73.70
2017-10-14T02:13:06.814Z,73.80
2017-10-14T02:15:34.450Z,73.90
2017-10-14T02:18:02.050Z,73.80
2017-10-14T02:20:29.713Z,74.40
2017-10-14T02:22:57.345Z,73.90
2017-10-14T02:25:25.720Z,74.00
2017-10-14T02:27:54.105Z,74.60
2017-10-14T02:30:22.471Z,74.10
2017-10-14T02:32:50.117Z,74.00
2017-10-14T02:35:17.716Z,74.00
2017-10-14T02:37:45.334Z,73.90
2017-10-14T02:40:12.962Z,74.10
2017-10-14T02:42:40.561Z,74.00
2017-10-14T02:45:08.197Z,74.10
2017-10-14T02:47:35.803Z,74.20
2017-10-14T02:50:04.247Z,74.40
2017-10-14T02:52:31.884Z,74.20
2017-10-14T02:54:59.559Z,74.30
2017-10-14T02:57:27.199Z,74.50
2017-10-14T02:59:54.801Z,74.30
2017-10-14T03:02:23.214Z,74.10
2017-10-14T03:04:51.610Z,74.50
2017-10-14T03:07:19.229Z,74.30
2017-10-14T03:09:46.865Z,74.50
2017-10-14T03:12:14.452Z,74.40
2017-10-14T03:14:42.854Z,74.40
2017-10-14T03:17:11.245Z,74.40
2017-10-14T03:19:38.853Z,74.40
2017-10-14T03:22:06.482Z,74.40
2017-10-14T03:24:34.089Z,74.60
2017-10-14T03:27:01.750Z,74.70
2017-10-14T03:29:29.350Z,74.70
2017-10-14T03:31:56.953Z,74.60
2017-10-14T03:34:24.591Z,74.70
2017-10-14T03:36:52.205Z,74.60
2017-10-14T03:39:19.846Z,74.40
2017-10-14T03:41:47.506Z,74.50
2017-10-14T03:44:15.106Z,74.60
2017-10-14T03:46:43.513Z,74.60
2017-10-14T03:49:11.126Z,74.50
2017-10-14T03:51:39.535Z,74.60
2017-10-14T03:54:07.132Z,74.60
2017-10-14T03:56:34.768Z,74.60
2017-10-14T03:59:02.374Z,74.60
2017-10-14T04:01:29.982Z,74.60
2017-10-14T04:03:57.619Z,74.60
2017-10-14T04:06:25.999Z,74.70
2017-10-14T04:08:54.414Z,74.80
2017-10-14T04:11:22.017Z,74.70
2017-10-14T04:13:49.623Z,74.80
2017-10-14T04:16:17.249Z,74.70
2017-10-14T04:18:44.852Z,75.00
2017-10-14T04:21:12.488Z,75.00
2017-10-14T04:23:40.862Z,74.90
2017-10-14T04:26:09.228Z,75.00
2017-10-14T04:28:36.859Z,75.00
2017-10-14T04:31:04.466Z,75.00
2017-10-14T04:33:32.850Z,74.60
2017-10-14T04:36:00.478Z,74.60
2017-10-14T04:38:28.109Z,74.70
2017-10-14T04:40:55.726Z,74.80
2017-10-14T04:43:24.104Z,74.50
2017-10-14T04:45:52.499Z,74.60
2017-10-14T04:48:20.108Z,74.60
2017-10-14T04:50:47.745Z,74.60
2017-10-14T04:53:15.346Z,74.20
2017-10-14T04:55:42.942Z,74.10
2017-10-14T04:58:10.588Z,74.20
2017-10-14T05:00:38.967Z,74.60
2017-10-14T05:03:07.363Z,74.50
2017-10-14T05:05:34.965Z,74.40
2017-10-14T05:08:02.606Z,74.40
2017-10-14T05:10:30.213Z,75.50
2017-10-14T05:12:57.825Z,74.70
2017-10-14T05:15:25.467Z,74.70
2017-10-14T05:17:53.091Z,74.70
2017-10-14T05:20:20.743Z,74.70
2017-10-14T05:22:48.374Z,74.70
2017-10-14T05:25:15.980Z,74.70
2017-10-14T05:27:43.609Z,74.70
2017-10-14T05:30:12.008Z,75.00
2017-10-14T05:32:39.683Z,75.00
2017-10-14T05:35:07.283Z,74.80
2017-10-14T05:37:34.897Z,74.80
2017-10-14T05:40:02.542Z,74.80
2017-10-14T05:42:30.153Z,74.80
2017-10-14T05:44:58.438Z,74.90
2017-10-14T05:47:26.057Z,75.00
2017-10-14T05:49:53.667Z,75.00
2017-10-14T05:52:21.304Z,74.90
2017-10-14T05:54:49.679Z,75.10
2017-10-14T05:57:18.097Z,75.00
2017-10-14T05:59:45.892Z,75.00
2017-10-14T06:02:13.539Z,75.20
2017-10-14T06:04:41.174Z,75.10
2017-10-14T06:07:08.793Z,75.30
2017-10-14T06:09:36.492Z,75.40
2017-10-14T06:12:04.131Z,75.30
2017-10-14T06:14:32.517Z,75.40
2017-10-14T06:17:00.912Z,75.30
2017-10-14T06:19:28.521Z,75.20
2017-10-14T06:21:56.165Z,75.30
2017-10-14T06:24:23.771Z,75.20
2017-10-14T06:26:52.145Z,75.40
2017-10-14T06:29:20.548Z,75.80
2017-10-14T06:31:48.182Z,75.70
2017-10-14T06:34:15.808Z,75.60
2017-10-14T06:36:44.005Z,75.50
2017-10-14T06:39:11.845Z,75.50
2017-10-14T06:41:39.477Z,75.70
2017-10-14T06:44:07.108Z,75.80
2017-10-14T06:46:35.513Z,76.00
2017-10-14T06:49:03.112Z,76.00
2017-10-14T06:51:30.742Z,75.90
2017-10-14T06:53:58.381Z,76.00
2017-10-14T06:56:26.785Z,76.00
2017-10-14T06:58:54.393Z,76.00
2017-10-14T07:01:22.002Z,76.00
2017-10-14T07:03:49.631Z,76.20
2017-10-14T07:06:18.005Z,76.40
2017-10-14T07:08:46.424Z,76.40
2017-10-14T07:11:14.095Z,76.30
2017-10-14T07:13:41.783Z,76.30
2017-10-14T07:16:09.417Z,76.30
2017-10-14T07:18:37.031Z,76.50
2017-10-14T07:21:04.680Z,76.70
2017-10-14T07:23:32.315Z,76.50
2017-10-14T07:25:59.925Z,76.40
2017-10-14T07:28:35.307Z,76.40
2017-10-14T07:31:02.916Z,76.30
2017-10-14T07:33:30.763Z,76.30
2017-10-14T07:35:58.718Z,76.30
2017-10-14T07:38:26.467Z,76.30
2017-10-14T07:40:54.280Z,76.40
2017-10-14T07:43:22.237Z,76.50
2017-10-14T07:45:50.029Z,76.60
2017-10-14T07:48:18.721Z,76.50
2017-10-14T07:50:47.232Z,76.60
2017-10-14T07:53:15.048Z,76.40
2017-10-14T07:55:42.799Z,76.40
2017-10-14T07:58:10.741Z,76.60
2017-10-14T08:00:38.511Z,76.40
2017-10-14T08:03:06.190Z,76.50
2017-10-14T08:05:33.821Z,76.50
2017-10-14T08:08:01.431Z,76.60
2017-10-14T08:10:29.071Z,76.40
2017-10-14T08:12:56.682Z,76.60
2017-10-14T08:15:24.336Z,76.70
2017-10-14T08:17:52.715Z,76.60
2017-10-14T08:20:20.360Z,76.40
2017-10-14T08:22:48.731Z,76.40
2017-10-14T08:25:16.347Z,76.40
2017-10-14T08:27:43.982Z,76.30
2017-10-14T08:30:11.605Z,76.20
2017-10-14T08:32:39.990Z,76.40
2017-10-14T08:35:07.724Z,76.40
2017-10-14T08:37:35.707Z,76.30
2017-10-14T08:40:03.578Z,76.40
2017-10-14T08:42:31.440Z,76.40
2017-10-14T08:44:59.817Z,76.20
2017-10-14T08:47:27.663Z,76.20
2017-10-14T08:49:55.553Z,76.10
2017-10-14T08:52:23.372Z,76.10
2017-10-14T08:54:51.291Z,76.10
2017-10-14T08:57:19.154Z,76.10
2017-10-14T08:59:47.023Z,75.90
2017-10-14T09:02:14.885Z,75.90
2017-10-14T09:04:42.748Z,76.00
2017-10-14T09:07:10.623Z,76.00
2017-10-14T09:09:38.384Z,76.10
2017-10-14T09:12:06.153Z,76.10
2017-10-14T09:14:34.007Z,76.20
2017-10-14T09:17:01.878Z,76.20
2017-10-14T09:19:29.854Z,76.20
2017-10-14T09:21:57.716Z,76.30
2017-10-14T09:24:25.533Z,76.10
2017-10-14T09:26:53.454Z,76.10
2017-10-14T09:29:21.310Z,76.20
2017-10-14T09:31:49.153Z,76.10
2017-10-14T09:34:16.942Z,76.00
2017-10-14T09:36:44.738Z,76.00
2017-10-14T09:39:13.398Z,75.40
2017-10-14T09:41:41.258Z,76.00
2017-10-14T09:44:09.034Z,76.00
2017-10-14T09:46:36.793Z,75.90
2017-10-14T09:49:04.598Z,75.70
2017-10-14T09:51:33.122Z,75.50
2017-10-14T09:54:01.009Z,75.50
2017-10-14T09:56:28.881Z,75.60
2017-10-14T09:58:56.735Z,75.60
2017-10-14T10:01:24.613Z,75.80
2017-10-14T10:03:52.377Z,75.70
2017-10-14T10:06:20.101Z,75.60
2017-10-14T10:08:47.902Z,75.70
2017-10-14T10:11:15.648Z,75.50
2017-10-14T10:13:43.427Z,75.50
2017-10-14T10:16:11.179Z,75.50
2017-10-14T10:18:38.788Z,75.40
2017-10-14T10:21:07.190Z,75.30
2017-10-14T10:23:34.804Z,75.30
2017-10-14T10:26:02.462Z,75.10
2017-10-14T10:28:30.065Z,75.00
2017-10-14T10:30:57.699Z,75.00
2017-10-14T10:33:25.329Z,75.00
2017-10-14T10:35:53.020Z,74.70
2017-10-14T10:38:20.736Z,74.80
2017-10-14T10:40:48.333Z,74.70
2017-10-14T10:43:15.983Z,74.40
2017-10-14T10:45:43.576Z,73.90
2017-10-14T10:48:11.950Z,73.80
2017-10-14T10:50:40.364Z,73.80
2017-10-14T10:53:08.019Z,73.60
2017-10-14T10:55:35.659Z,73.60
2017-10-14T10:58:03.261Z,73.50
2017-10-14T11:00:30.864Z,73.20
2017-10-14T11:02:58.504Z,72.90
2017-10-14T11:05:26.110Z,73.00
2017-10-14T11:07:54.518Z,72.70
2017-10-14T11:10:22.130Z,72.60
2017-10-14T11:12:50.502Z,72.80
2017-10-14T11:15:18.937Z,72.40
2017-10-14T11:17:46.546Z,72.30
2017-10-14T11:20:14.171Z,72.20
2017-10-14T11:22:41.777Z,72.20
2017-10-14T11:25:10.182Z,72.20
2017-10-14T11:27:37.850Z,72.10
2017-10-14T11:30:05.454Z,72.00
2017-10-14T11:32:33.103Z,72.00
2017-10-14T11:35:00.721Z,71.80
2017-10-14T11:37:28.358Z,71.90
2017-10-14T11:39:55.977Z,71.70
2017-10-14T11:42:23.578Z,71.90
2017-10-14T11:44:51.225Z,71.90
2017-10-14T11:47:18.847Z,72.70
2017-10-14T11:49:46.485Z,72.00
2017-10-14T11:52:14.865Z,71.80
2017-10-14T11:54:42.518Z,71.70
2017-10-14T11:57:10.938Z,71.70
2017-10-14T11:59:38.544Z,71.70
2017-10-14T12:02:06.185Z,71.70
2017-10-14T12:04:33.789Z,70.90
2017-10-14T12:07:01.399Z,71.50
2017-10-14T12:09:29.020Z,71.70
2017-10-14T12:11:56.649Z,71.60
2017-10-14T12:14:24.270Z,71.60
2017-10-14T12:16:51.874Z,71.70
2017-10-14T12:19:20.293Z,71.60
2017-10-14T12:21:47.908Z,71.50
2017-10-14T12:24:15.546Z,71.80
2017-10-14T12:26:43.153Z,71.70
2017-10-14T12:29:10.827Z,71.60
2017-10-14T12:31:38.453Z,71.60
2017-10-14T12:34:06.061Z,71.50
2017-10-14T12:36:33.703Z,71.60
2017-10-14T12:39:01.309Z,71.50
2017-10-14T12:41:28.939Z,71.70
2017-10-14T12:43:56.600Z,71.50
2017-10-14T12:46:24.204Z,71.40
2017-10-14T12:48:51.853Z,71.50
2017-10-14T12:51:19.488Z,71.30
2017-10-14T12:53:47.140Z,71.40
2017-10-14T12:56:14.748Z,71.30
2017-10-14T12:58:42.354Z,71.50
2017-10-14T13:01:09.985Z,71.20
2017-10-14T13:03:37.602Z,71.30
2017-10-14T13:06:05.241Z,71.50
2017-10-14T13:08:32.839Z,71.40
2017-10-14T13:11:01.185Z,71.30
2017-10-14T13:13:28.828Z,71.40
2017-10-14T13:15:56.438Z,71.50
2017-10-14T13:18:24.073Z,71.50
2017-10-14T13:20:51.723Z,71.60
2017-10-14T13:23:19.376Z,71.50
2017-10-14T13:25:47.749Z,71.50
2017-10-14T13:28:16.121Z,71.60
2017-10-14T13:30:44.532Z,71.60
2017-10-14T13:33:12.149Z,71.50
2017-10-14T13:35:39.807Z,71.50
2017-10-14T13:38:07.413Z,71.60
2017-10-14T13:40:35.021Z,71.60
2017-10-14T13:43:02.664Z,71.50
2017-10-14T13:45:30.294Z,71.50
2017-10-14T13:47:58.072Z,71.60
2017-10-14T13:50:25.690Z,71.60
2017-10-14T13:52:54.110Z,71.60
2017-10-14T13:55:21.741Z,71.60
2017-10-14T13:57:50.106Z,71.30
2017-10-14T14:00:18.498Z,71.30
2017-10-14T14:02:46.101Z,71.30
2017-10-14T14:05:13.733Z,71.40
2017-10-14T14:07:41.334Z,71.50
2017-10-14T14:10:08.941Z,71.50
2017-10-14T14:12:37.346Z,72.30
2017-10-14T14:15:04.954Z,71.50
2017-10-14T14:17:32.594Z,71.50
2017-10-14T14:20:00.205Z,71.50
2017-10-14T14:22:28.577Z,71.50
2017-10-14T14:24:57.004Z,71.40
2017-10-14T14:27:24.607Z,71.40
2017-10-14T14:29:53.009Z,71.60
2017-10-14T14:32:20.615Z,71.60
2017-10-14T14:34:48.277Z,71.70
2017-10-14T14:37:15.888Z,71.50
2017-10-14T14:39:44.265Z,71.70
2017-10-14T14:42:12.681Z,71.60
2017-10-14T14:44:40.282Z,71.60
2017-10-14T14:47:08.694Z,71.50
2017-10-14T14:49:36.297Z,71.50
2017-10-14T14:52:03.910Z,71.40
2017-10-14T14:54:31.538Z,71.40
2017-10-14T14:56:59.402Z,71.40
2017-10-14T14:59:27.044Z,71.30
2017-10-14T15:01:54.653Z,71.40
2017-10-14T15:04:23.058Z,72.30
2017-10-14T15:06:50.691Z,71.40
2017-10-14T15:09:19.102Z,71.40
2017-10-14T15:11:46.751Z,71.40
2017-10-14T15:14:14.377Z,71.30
2017-10-14T15:16:42.046Z,71.50
2017-10-14T15:19:10.427Z,71.50
2017-10-14T15:21:38.034Z,71.40
2017-10-14T15:24:05.667Z,71.50
2017-10-14T15:26:33.302Z,71.50
2017-10-14T15:29:00.989Z,71.50
2017-10-14T15:31:28.663Z,71.40
2017-10-14T15:33:56.463Z,71.50
2017-10-14T15:36:24.093Z,71.60
2017-10-14T15:38:51.716Z,71.50
2017-10-14T15:41:19.365Z,71.40
2017-10-14T15:43:46.962Z,71.40
2017-10-14T15:46:15.422Z,71.50
2017-10-14T15:48:43.817Z,71.50
2017-10-14T15:51:11.461Z,71.40
2017-10-14T15:53:39.859Z,71.40
2017-10-14T15:56:07.549Z,71.30
2017-10-14T15:58:35.184Z,71.30
2017-10-14T16:01:02.836Z,71.10
2017-10-14T16:03:31.221Z,71.10
2017-10-14T16:05:59.595Z,71.00
2017-10-14T16:08:28.135Z,70.80
2017-10-14T16:10:55.743Z,70.80
2017-10-14T16:13:23.354Z,70.90
2017-10-14T16:15:51.001Z,70.70
2017-10-14T16:18:18.684Z,70.80
2017-10-14T16:20:46.292Z,70.70
2017-10-14T16:23:13.921Z,70.40
2017-10-14T16:25:41.522Z,70.50
2017-10-14T16:28:09.172Z,70.60
2017-10-14T16:30:36.779Z,70.70
2017-10-14T16:33:04.397Z,70.50
2017-10-14T16:35:32.059Z,70.50
2017-10-14T16:38:00.442Z,70.50
2017-10-14T16:40:28.049Z,70.40
2017-10-14T16:45:29.797Z,70.40
2017-10-14T16:47:57.590Z,70.40
2017-10-14T16:50:25.330Z,70.40
2017-10-14T16:52:53.054Z,70.50
2017-10-14T16:55:21.718Z,70.50
2017-10-14T16:57:49.566Z,70.40
2017-10-14T17:00:17.435Z,70.50
2017-10-14T17:02:45.304Z,70.40
2017-10-14T17:05:13.075Z,70.30
2017-10-14T17:07:40.893Z,70.30
2017-10-14T17:10:08.643Z,71.10
2017-10-14T17:12:36.388Z,70.30
2017-10-14T17:15:04.942Z,70.30
2017-10-14T17:17:32.810Z,70.20
2017-10-14T17:20:00.678Z,70.20
2017-10-14T17:22:28.644Z,70.20
2017-10-14T17:24:56.467Z,70.30
2017-10-14T17:27:24.202Z,70.20
2017-10-14T17:29:52.762Z,70.10
2017-10-14T17:32:20.502Z,70.10
2017-10-14T17:34:48.298Z,70.10
2017-10-14T17:37:16.035Z,70.10
2017-10-14T17:39:43.773Z,70.00
2017-10-14T17:42:11.567Z,69.90
2017-10-14T17:44:39.307Z,69.90
2017-10-14T17:47:07.039Z,69.80
2017-10-14T17:49:35.640Z,69.80
2017-10-14T17:52:03.403Z,69.80
2017-10-14T17:54:31.314Z,69.80
2017-10-14T17:56:59.182Z,69.80
2017-10-14T17:59:26.999Z,69.80
2017-10-14T18:01:54.884Z,69.90
2017-10-14T18:04:22.688Z,69.80
2017-10-14T18:06:50.548Z,69.90
2017-10-14T18:09:18.415Z,70.00
2017-10-14T18:11:46.286Z,70.00
2017-10-14T18:14:14.152Z,70.10
2017-10-14T18:16:42.022Z,70.20
2017-10-14T18:19:09.886Z,70.20
2017-10-14T18:21:37.747Z,70.20
2017-10-14T18:24:05.510Z,70.20
2017-10-14T18:26:33.382Z,70.20
2017-10-14T18:29:01.352Z,70.40
2017-10-14T18:31:29.220Z,70.30
2017-10-14T18:33:57.087Z,70.30
2017-10-14T18:36:24.948Z,70.30
2017-10-14T18:38:52.817Z,70.30
2017-10-14T18:41:20.788Z,70.40
2017-10-14T18:43:48.658Z,70.40
2017-10-14T18:46:16.534Z,70.50
2017-10-14T18:48:45.205Z,70.40
2017-10-14T18:51:13.029Z,70.40
2017-10-14T18:53:40.937Z,70.50
2017-10-14T18:56:08.703Z,70.60
2017-10-14T18:58:36.567Z,70.70
2017-10-14T19:01:04.441Z,70.60
2017-10-14T19:03:32.300Z,70.70
2017-10-14T19:06:00.167Z,70.70
2017-10-14T19:08:27.934Z,70.60
2017-10-14T19:10:55.803Z,70.60
2017-10-14T19:13:23.669Z,70.50
2017-10-14T19:15:51.537Z,70.50
2017-10-14T19:18:19.399Z,70.60
2017-10-14T19:20:47.275Z,70.60
2017-10-14T19:23:15.133Z,70.50
2017-10-14T19:25:42.962Z,70.50
2017-10-14T19:28:10.872Z,70.50
2017-10-14T19:30:38.638Z,70.70
2017-10-14T19:33:06.779Z,70.70
2017-10-14T19:35:34.572Z,70.50
2017-10-14T19:38:02.442Z,70.50
2017-10-14T19:40:30.076Z,70.40
2017-10-14T19:42:57.742Z,70.40
2017-10-14T19:45:25.343Z,70.50
2017-10-14T19:47:53.716Z,70.20
2017-10-14T19:50:21.375Z,70.30
2017-10-14T19:52:48.977Z,70.30
2017-10-14T19:55:16.591Z,70.40
2017-10-14T19:57:44.251Z,70.20
2017-10-14T20:00:11.857Z,70.20
2017-10-14T20:02:39.462Z,70.10
2017-10-14T20:05:07.115Z,70.10
2017-10-14T20:07:34.709Z,70.00
2017-10-14T20:10:02.309Z,70.10
2017-10-14T20:12:29.979Z,69.90
2017-10-14T20:14:57.645Z,69.90
2017-10-14T20:17:25.282Z,70.10
2017-10-14T20:19:52.928Z,70.10
2017-10-14T20:22:21.293Z,70.00
2017-10-14T20:24:48.906Z,70.00
2017-10-14T20:27:16.546Z,69.80
2017-10-14T20:29:44.241Z,70.00
2017-10-14T20:32:11.858Z,69.80
2017-10-14T20:34:40.268Z,69.90
2017-10-14T20:37:07.885Z,70.60
2017-10-14T20:39:36.285Z,70.20
2017-10-14T20:42:04.651Z,70.00
2017-10-14T20:44:32.245Z,70.10
2017-10-14T20:46:59.903Z,70.10
2017-10-14T20:49:27.516Z,70.30
2017-10-14T20:51:56.713Z,70.40
2017-10-14T20:54:24.338Z,70.40
2017-10-14T20:56:51.938Z,70.50
2017-10-14T20:59:19.584Z,70.40
2017-10-14T21:01:47.197Z,70.50
2017-10-14T21:04:14.799Z,70.20
2017-10-14T21:06:42.444Z,70.30
2017-10-14T21:09:10.085Z,70.10
2017-10-14T21:11:37.718Z,70.20
2017-10-14T21:14:06.123Z,70.50
2017-10-14T21:16:33.731Z,70.30
2017-10-14T21:19:01.357Z,70.40
2017-10-14T21:21:28.999Z,70.20
2017-10-14T21:23:56.613Z,70.20
2017-10-14T21:26:24.247Z,70.20
2017-10-14T21:28:51.853Z,70.30
2017-10-14T21:31:19.453Z,70.30
2017-10-14T21:33:47.092Z,70.40
2017-10-14T21:36:15.461Z,70.30
2017-10-14T21:38:43.829Z,70.30
2017-10-14T21:41:11.473Z,70.20
2017-10-14T21:43:39.102Z,70.20
2017-10-14T21:46:06.712Z,70.30
2017-10-14T21:48:34.445Z,70.40
2017-10-14T21:51:02.065Z,70.80
2017-10-14T21:53:30.476Z,70.30
2017-10-14T21:55:58.173Z,70.30
2017-10-14T21:58:25.786Z,70.40
2017-10-14T22:00:53.418Z,70.30
2017-10-14T22:03:21.794Z,70.40
2017-10-14T22:05:50.174Z,70.50
2017-10-14T22:08:18.594Z,70.50
2017-10-14T22:10:46.223Z,70.40
2017-10-14T22:13:13.858Z,70.40
2017-10-14T22:15:41.470Z,70.40
2017-10-14T22:18:09.247Z,70.70
2017-10-14T22:20:36.902Z,70.50
2017-10-14T22:23:04.569Z,70.50
2017-10-14T22:25:32.184Z,70.50
2017-10-14T22:28:00.654Z,70.40
2017-10-14T22:30:29.017Z,70.00
2017-10-14T22:32:56.620Z,70.40
2017-10-14T22:35:24.266Z,70.30
2017-10-14T22:37:52.645Z,70.20
2017-10-14T22:40:21.025Z,70.10
2017-10-14T22:42:48.736Z,69.90
2017-10-14T22:45:16.347Z,70.20
2017-10-14T22:47:44.990Z,70.00
2017-10-14T22:50:12.589Z,70.00
2017-10-14T22:52:40.966Z,70.10
2017-10-14T22:55:09.371Z,70.00
2017-10-14T22:57:36.989Z,70.00
2017-10-14T23:00:04.636Z,70.00
2017-10-14T23:02:32.243Z,69.90
2017-10-14T23:05:00.609Z,70.00
2017-10-14T23:07:29.009Z,69.90
2017-10-14T23:09:56.642Z,69.80
2017-10-14T23:12:25.005Z,70.10
2017-10-14T23:14:52.913Z,70.10
2017-10-14T23:17:20.539Z,70.00
2017-10-14T23:19:48.142Z,70.10
2017-10-14T23:22:17.717Z,70.10
2017-10-14T23:24:46.254Z,70.40
2017-10-14T23:27:13.901Z,70.20
2017-10-14T23:29:41.566Z,70.40
2017-10-14T23:32:09.178Z,70.40
2017-10-14T23:34:36.850Z,70.50
2017-10-14T23:37:05.218Z,70.30
2017-10-14T23:39:32.942Z,70.20
2017-10-14T23:42:00.580Z,70.80
2017-10-14T23:44:28.212Z,70.20
2017-10-14T23:46:56.688Z,70.30
2017-10-14T23:49:24.312Z,70.30
2017-10-14T23:51:51.938Z,70.30
2017-10-14T23:54:19.632Z,70.30
2017-10-14T23:56:47.250Z,70.30
2017-10-14T23:59:15.652Z,70.30
